TimeHST,TemperatureF,Dew PointF,Humidity,Sea Level PressureIn,VisibilityMPH,Wind Direction,Wind SpeedMPH,Gust SpeedMPH,PrecipitationIn,Events,Conditions,WindDirDegrees,DateUTC
12:07 AM,69.8,69.8,100,30.08,10.0,NW,6.9,-,0.01,Rain,Light Rain,310,2011-11-06 10:07:00
12:53 AM,70.0,68.0,93,30.07,10.0,NW,4.6,-,0.05,,Overcast,310,2011-11-06 10:53:00
1:00 AM,69.8,68.0,94,30.07,2.5,NW,3.5,-,0.04,Rain,Heavy Rain,310,2011-11-06 11:00:00
1:04 AM,69.8,69.8,100,30.07,1.8,WNW,4.6,-,0.07,Rain,Heavy Rain,300,2011-11-06 11:04:00
1:11 AM,69.8,68.0,94,30.07,3.0,WNW,4.6,-,0.10,Rain,Light Rain,300,2011-11-06 11:11:00
1:31 AM,69.8,68.0,94,30.06,10.0,NW,6.9,-,0.11,,Overcast,310,2011-11-06 11:31:00
1:34 AM,69.8,68.0,94,30.07,10.0,NW,5.8,-,0.11,Thunderstorm,Thunderstorm,320,2011-11-06 11:34:00
1:53 AM,70.0,68.0,93,30.05,10.0,WNW,6.9,-,0.12,Rain-Thunderstorm,Light Thunderstorms and Rain,290,2011-11-06 11:53:00
2:04 AM,69.8,68.0,94,30.05,10.0,WNW,4.6,-,0.00,Rain-Thunderstorm,Light Thunderstorms and Rain,300,2011-11-06 12:04:00
2:45 AM,69.8,68.0,94,30.04,2.0,NW,6.9,-,0.06,Rain,Heavy Rain,310,2011-11-06 12:45:00
2:48 AM,69.8,68.0,94,30.04,1.8,WNW,6.9,-,0.10,Rain,Heavy Rain,300,2011-11-06 12:48:00
2:53 AM,70.0,68.0,93,30.04,2.0,NW,6.9,-,0.14,Rain,Rain,320,2011-11-06 12:53:00
3:02 AM,69.8,69.8,100,30.05,3.0,North,6.9,-,0.08,Rain,Heavy Rain,350,2011-11-06 13:02:00
3:05 AM,69.8,69.8,100,30.04,4.0,NNW,8.1,-,0.11,Rain-Thunderstorm,Heavy Thunderstorms and Rain,330,2011-11-06 13:05:00
3:53 AM,70.0,68.0,93,30.03,5.0,North,9.2,-,0.13,Rain-Thunderstorm,Light Thunderstorms and Rain,350,2011-11-06 13:53:00
4:20 AM,69.8,68.0,94,30.03,10.0,NW,5.8,-,0.03,Rain,Light Rain,320,2011-11-06 14:20:00
4:42 AM,69.8,68.0,94,30.03,10.0,North,4.6,-,0.06,Rain,Light Rain,350,2011-11-06 14:42:00
4:51 AM,69.8,68.0,94,30.03,10.0,NW,5.8,-,0.06,,Overcast,320,2011-11-06 14:51:00
4:53 AM,70.0,68.0,93,30.03,10.0,NW,6.9,-,0.06,,Overcast,320,2011-11-06 14:53:00
5:00 AM,69.8,68.0,94,30.03,10.0,WNW,6.9,-,N/A,,Overcast,300,2011-11-06 15:00:00
5:53 AM,73.9,68.0,82,30.04,10.0,ENE,16.1,-,N/A,,Overcast,60,2011-11-06 15:53:00
6:04 AM,73.4,68.0,83,30.05,10.0,ENE,15.0,-,N/A,,Mostly Cloudy,60,2011-11-06 16:04:00
6:53 AM,75.0,66.9,76,30.06,10.0,ENE,13.8,-,N/A,,Mostly Cloudy,70,2011-11-06 16:53:00
7:53 AM,75.9,69.1,79,30.07,10.0,ENE,18.4,-,0.01,,Overcast,70,2011-11-06 17:53:00
8:05 AM,75.2,68.0,78,30.08,-9999.0,ENE,16.1,-,N/A,,Unknown,70,2011-11-06 18:05:00
8:22 AM,77.0,69.8,78,30.09,10.0,ENE,15.0,-,N/A,,Overcast,70,2011-11-06 18:22:00
8:53 AM,75.9,69.1,79,30.09,10.0,ENE,17.3,-,N/A,,Overcast,70,2011-11-06 18:53:00
9:53 AM,77.0,69.1,76,30.10,10.0,ENE,15.0,-,N/A,,Overcast,70,2011-11-06 19:53:00
10:53 AM,78.1,69.1,74,30.10,10.0,ENE,15.0,20.7,N/A,,Overcast,70,2011-11-06 20:53:00
11:53 AM,75.9,71.1,85,30.07,4.0,East,17.3,20.7,0.01,Rain,Light Rain,90,2011-11-06 21:53:00
12:38 PM,78.8,69.8,74,30.06,10.0,East,16.1,-,0.00,,Scattered Clouds,80,2011-11-06 22:38:00
12:53 PM,79.0,69.1,72,30.04,10.0,ENE,16.1,-,0.00,,Scattered Clouds,70,2011-11-06 22:53:00
1:53 PM,79.0,69.1,72,30.02,10.0,ENE,16.1,-,N/A,,Mostly Cloudy,70,2011-11-06 23:53:00
2:18 PM,78.8,68.0,69,30.02,10.0,ENE,18.4,-,N/A,,Mostly Cloudy,60,2011-11-07 00:18:00
2:42 PM,78.8,69.8,74,30.02,10.0,ENE,17.3,-,N/A,,Scattered Clouds,60,2011-11-07 00:42:00
2:53 PM,79.0,69.1,72,30.01,10.0,NE,15.0,-,N/A,,Scattered Clouds,50,2011-11-07 00:53:00
3:53 PM,78.1,68.0,71,30.02,10.0,ENE,19.6,24.2,N/A,,Scattered Clouds,60,2011-11-07 01:53:00
4:53 PM,77.0,66.9,71,30.03,10.0,NE,16.1,-,N/A,,Partly Cloudy,50,2011-11-07 02:53:00
5:53 PM,75.0,69.1,82,30.04,10.0,NE,12.7,-,N/A,,Mostly Cloudy,50,2011-11-07 03:53:00
6:53 PM,73.9,71.1,91,30.06,6.0,NE,17.3,31.1,0.01,Rain,Light Rain,50,2011-11-07 04:53:00
6:59 PM,73.4,69.8,88,30.06,10.0,NE,18.4,-,0.00,,Mostly Cloudy,50,2011-11-07 04:59:00
7:53 PM,75.0,70.0,84,30.07,10.0,ENE,16.1,-,0.00,,Mostly Cloudy,60,2011-11-07 05:53:00
8:19 PM,75.2,69.8,83,30.09,10.0,ENE,20.7,24.2,N/A,,Mostly Cloudy,60,2011-11-07 06:19:00
8:53 PM,75.0,69.1,82,30.09,10.0,ENE,19.6,-,N/A,,Mostly Cloudy,70,2011-11-07 06:53:00
9:53 PM,75.0,68.0,79,30.11,10.0,East,18.4,-,N/A,,Mostly Cloudy,80,2011-11-07 07:53:00
10:53 PM,75.0,68.0,79,30.11,10.0,East,17.3,-,N/A,,Partly Cloudy,80,2011-11-07 08:53:00
11:53 PM,75.0,69.1,82,30.10,10.0,ENE,16.1,-,N/A,,Mostly Cloudy,70,2011-11-07 09:53:00